createdAt,value
2023-05-10T00:00:07.375Z,2.63
2023-05-10T00:02:43.762Z,2.80
2023-05-10T00:05:12.305Z,3.13
2023-05-10T00:07:41.236Z,2.40
2023-05-10T00:10:10.064Z,2.50
2023-05-10T00:12:38.421Z,3.00
2023-05-10T00:15:07.115Z,2.75
2023-05-10T00:17:35.145Z,2.40
2023-05-10T00:20:03.792Z,2.38
2023-05-10T00:22:32.902Z,2.75
2023-05-10T00:25:01.376Z,2.65
2023-05-10T00:27:29.701Z,2.38
2023-05-10T00:29:59.902Z,2.67
2023-05-10T00:32:28.402Z,2.45
2023-05-10T00:34:58.080Z,2.40
2023-05-10T00:37:26.347Z,2.60
2023-05-10T00:39:56.464Z,2.65
2023-05-10T00:42:24.761Z,2.55
2023-05-10T00:44:55.440Z,2.73
2023-05-10T00:47:25.148Z,2.40
2023-05-10T00:49:54.063Z,3.35
2023-05-10T00:52:24.956Z,3.10
2023-05-10T00:54:54.894Z,2.83
2023-05-10T00:57:23.885Z,3.20
2023-05-10T00:59:53.790Z,2.95
2023-05-10T01:02:22.216Z,2.63
2023-05-10T01:04:51.655Z,2.65
2023-05-10T01:07:19.850Z,2.60
2023-05-10T01:09:48.201Z,2.97
2023-05-10T01:12:16.274Z,2.35
2023-05-10T01:14:44.639Z,3.05
2023-05-10T01:17:14.264Z,2.65
2023-05-10T01:19:43.130Z,2.45
2023-05-10T01:22:23.977Z,2.60
2023-05-10T01:25:06.829Z,2.78
2023-05-10T01:27:43.653Z,2.78
2023-05-10T01:30:22.531Z,3.08
2023-05-10T01:33:02.864Z,3.70
2023-05-10T01:35:57.229Z,2.80
2023-05-10T01:38:48.084Z,2.50
2023-05-10T01:41:20.310Z,2.50
2023-05-10T01:44:13.898Z,2.58
2023-05-10T01:46:42.464Z,2.50
2023-05-10T01:49:20.751Z,2.55
2023-05-10T01:51:56.070Z,2.50
2023-05-10T01:54:25.161Z,2.65
2023-05-10T01:56:58.511Z,2.75
2023-05-10T01:59:29.864Z,2.42
2023-05-10T02:02:00.286Z,2.60
2023-05-10T02:04:28.766Z,2.42
2023-05-10T02:06:58.851Z,2.75
2023-05-10T02:09:28.016Z,2.63
2023-05-10T02:11:56.397Z,2.58
2023-05-10T02:14:25.689Z,2.97
2023-05-10T02:16:54.303Z,2.72
2023-05-10T02:19:23.217Z,2.55
2023-05-10T02:21:52.731Z,2.85
2023-05-10T02:24:21.481Z,2.75
2023-05-10T02:26:49.987Z,2.83
2023-05-10T02:29:18.619Z,2.65
2023-05-10T02:31:47.332Z,2.63
2023-05-10T02:34:15.840Z,2.67
2023-05-10T02:36:44.011Z,2.85
2023-05-10T02:39:14.754Z,3.15
2023-05-10T02:41:43.213Z,2.88
2023-05-10T02:44:11.831Z,2.47
2023-05-10T02:46:40.003Z,2.70
2023-05-10T02:49:08.210Z,2.72
2023-05-10T02:51:39.035Z,2.65
2023-05-10T02:54:13.393Z,2.75
2023-05-10T02:56:48.301Z,2.42
2023-05-10T02:59:16.496Z,2.40
2023-05-10T03:01:44.590Z,2.88
2023-05-10T03:04:12.774Z,2.63
2023-05-10T03:06:41.149Z,2.78
2023-05-10T03:09:10.765Z,2.67
2023-05-10T03:12:13.337Z,2.33
2023-05-10T03:15:05.100Z,2.40
2023-05-10T03:17:50.161Z,2.40
2023-05-10T03:20:35.025Z,2.85
2023-05-10T03:23:23.212Z,3.00
2023-05-10T03:25:52.096Z,2.50
2023-05-10T03:28:22.184Z,2.60
2023-05-10T03:30:51.459Z,2.80
2023-05-10T03:33:19.732Z,2.83
2023-05-10T03:35:48.719Z,3.15
2023-05-10T03:38:17.574Z,2.55
2023-05-10T03:40:45.889Z,2.92
2023-05-10T03:43:14.415Z,2.38
2023-05-10T03:45:43.784Z,2.13
2023-05-10T03:48:12.058Z,2.60
2023-05-10T03:50:40.130Z,3.22
2023-05-10T03:53:08.297Z,2.45
2023-05-10T03:55:37.618Z,2.13
2023-05-10T03:58:05.918Z,2.80
2023-05-10T04:00:36.404Z,2.20
2023-05-10T04:03:29.985Z,2.63
2023-05-10T04:06:02.859Z,2.65
2023-05-10T04:08:31.119Z,2.35
2023-05-10T04:11:13.577Z,2.72
2023-05-10T04:13:42.152Z,2.58
2023-05-10T04:16:10.409Z,2.28
2023-05-10T04:18:38.523Z,3.03
2023-05-10T04:21:14.852Z,2.70
2023-05-10T04:23:43.273Z,2.70
2023-05-10T04:26:11.636Z,2.30
2023-05-10T04:28:39.984Z,2.75
2023-05-10T04:31:09.648Z,3.15
2023-05-10T04:33:38.461Z,2.78
2023-05-10T04:36:06.901Z,2.47
2023-05-10T04:38:35.078Z,2.38
2023-05-10T04:41:07.662Z,2.80
2023-05-10T04:43:36.399Z,2.53
2023-05-10T04:46:05.127Z,3.20
2023-05-10T04:48:33.128Z,3.15
2023-05-10T04:51:01.080Z,2.78
2023-05-10T04:53:28.980Z,2.63
2023-05-10T04:55:57.209Z,2.78
2023-05-10T04:58:25.186Z,2.85
2023-05-10T05:00:53.261Z,3.00
2023-05-10T05:03:21.183Z,2.75
2023-05-10T05:05:49.374Z,2.47
2023-05-10T05:08:17.374Z,3.40
2023-05-10T05:10:45.506Z,2.70
2023-05-10T05:13:17.754Z,2.97
2023-05-10T05:15:46.066Z,2.67
2023-05-10T05:18:14.321Z,2.85
2023-05-10T05:20:42.555Z,2.65
2023-05-10T05:23:10.532Z,2.85
2023-05-10T05:25:38.843Z,2.63
2023-05-10T05:28:06.983Z,3.33
2023-05-10T05:30:35.183Z,2.58
2023-05-10T05:33:03.366Z,3.28
2023-05-10T05:35:31.613Z,2.83
2023-05-10T05:37:59.715Z,3.15
2023-05-10T05:40:27.909Z,2.95
2023-05-10T05:42:56.045Z,2.80
2023-05-10T05:45:24.252Z,3.42
2023-05-10T05:47:52.494Z,3.20
2023-05-10T05:50:20.979Z,3.55
2023-05-10T05:52:50.301Z,2.92
2023-05-10T05:55:19.379Z,2.80
2023-05-10T05:57:47.823Z,3.40
2023-05-10T06:00:16.617Z,3.08
2023-05-10T06:02:46.770Z,3.50
2023-05-10T06:05:15.543Z,3.42
2023-05-10T06:07:44.017Z,3.20
2023-05-10T06:10:12.315Z,2.72
2023-05-10T06:12:40.324Z,2.92
2023-05-10T06:15:09.124Z,3.50
2023-05-10T06:17:37.184Z,3.10
2023-05-10T06:20:06.142Z,2.90
2023-05-10T06:22:34.257Z,2.90
2023-05-10T06:25:03.277Z,2.88
2023-05-10T06:27:31.362Z,2.85
2023-05-10T06:30:11.683Z,3.05
2023-05-10T06:32:41.608Z,2.90
2023-05-10T06:35:10.367Z,2.78
2023-05-10T06:37:38.331Z,3.30
2023-05-10T06:40:07.520Z,3.67
2023-05-10T06:42:35.634Z,2.90
2023-05-10T06:45:04.916Z,2.60
2023-05-10T06:47:37.206Z,2.85
2023-05-10T06:50:07.640Z,3.13
2023-05-10T06:52:35.828Z,3.35
2023-05-10T06:55:04.858Z,3.15
2023-05-10T06:57:33.236Z,2.88
2023-05-10T07:00:01.309Z,3.25
2023-05-10T07:02:29.595Z,3.38
2023-05-10T07:04:59.455Z,3.22
2023-05-10T07:07:29.141Z,3.13
2023-05-10T07:09:58.843Z,3.00
2023-05-10T07:12:27.393Z,3.83
2023-05-10T07:14:55.446Z,3.83
2023-05-10T07:17:23.576Z,3.17
2023-05-10T07:19:54.633Z,3.33
2023-05-10T07:22:22.750Z,3.55
2023-05-10T07:24:51.218Z,3.47
2023-05-10T07:27:19.359Z,3.55
2023-05-10T07:29:47.534Z,3.10
2023-05-10T07:32:15.721Z,3.95
2023-05-10T07:34:43.963Z,4.22
2023-05-10T07:37:12.686Z,3.63
2023-05-10T07:39:40.768Z,3.90
2023-05-10T07:42:09.940Z,3.45
2023-05-10T07:44:37.932Z,3.22
2023-05-10T07:47:05.974Z,3.42
2023-05-10T07:49:34.695Z,3.30
2023-05-10T07:52:04.216Z,3.63
2023-05-10T07:54:32.285Z,3.63
2023-05-10T07:57:01.043Z,3.33
2023-05-10T07:59:29.131Z,3.70
2023-05-10T08:01:57.540Z,2.70
2023-05-10T08:04:25.746Z,3.38
2023-05-10T08:06:54.146Z,2.72
2023-05-10T08:09:25.220Z,3.70
2023-05-10T08:11:53.517Z,3.13
2023-05-10T08:14:21.914Z,3.00
2023-05-10T08:16:50.047Z,3.72
2023-05-10T08:19:20.791Z,3.28
2023-05-10T08:21:48.982Z,3.30
2023-05-10T08:24:16.940Z,3.67
2023-05-10T08:26:44.913Z,3.75
2023-05-10T08:29:13.026Z,3.33
2023-05-10T08:31:41.169Z,4.03
2023-05-10T08:34:09.248Z,3.17
2023-05-10T08:36:37.385Z,3.38
2023-05-10T08:39:07.744Z,3.85
2023-05-10T08:41:41.931Z,4.47
2023-05-10T08:44:10.350Z,3.15
2023-05-10T08:46:41.123Z,3.10
2023-05-10T08:49:12.897Z,3.88
2023-05-10T08:51:43.976Z,3.15
2023-05-10T08:54:12.245Z,3.40
2023-05-10T08:56:40.297Z,3.35
2023-05-10T08:59:08.461Z,4.15
2023-05-10T09:01:37.852Z,3.50
2023-05-10T09:04:06.452Z,3.35
2023-05-10T09:06:35.365Z,3.75
2023-05-10T09:09:04.669Z,2.97
2023-05-10T09:11:33.324Z,2.83
2023-05-10T09:14:01.317Z,3.08
2023-05-10T09:16:29.385Z,2.50
2023-05-10T09:18:57.792Z,2.97
2023-05-10T09:21:26.210Z,2.97
2023-05-10T09:23:55.556Z,3.28
2023-05-10T09:26:26.715Z,2.97
2023-05-10T09:28:57.435Z,2.45
2023-05-10T09:31:28.979Z,2.70
2023-05-10T09:33:57.504Z,2.85
2023-05-10T09:36:25.565Z,2.28
2023-05-10T09:38:57.130Z,3.10
2023-05-10T09:41:26.371Z,2.50
2023-05-10T09:43:58.180Z,2.10
2023-05-10T09:46:27.279Z,2.80
2023-05-10T09:48:55.600Z,2.28
2023-05-10T09:51:25.521Z,2.20
2023-05-10T09:54:12.266Z,2.63
2023-05-10T09:56:41.758Z,2.03
2023-05-10T09:59:13.893Z,2.03
2023-05-10T10:01:44.233Z,2.25
2023-05-10T10:04:12.973Z,2.00
2023-05-10T10:06:41.746Z,1.35
2023-05-10T10:09:10.809Z,0.98
2023-05-10T10:11:40.502Z,1.00
2023-05-10T10:14:08.457Z,0.60
2023-05-10T10:16:36.540Z,0.68
2023-05-10T10:19:04.535Z,0.40
2023-05-10T10:21:34.661Z,1.15
2023-05-10T10:24:02.751Z,0.63
2023-05-10T10:26:31.702Z,0.63
2023-05-10T10:29:38.071Z,0.60
2023-05-10T10:32:32.162Z,0.60
2023-05-10T10:35:00.919Z,0.35
2023-05-10T10:37:46.945Z,0.30
2023-05-10T10:40:33.645Z,0.30
2023-05-10T10:43:25.441Z,0.38
2023-05-10T10:48:42.765Z,0.32
2023-05-10T10:51:12.891Z,0.20
2023-05-10T10:53:42.211Z,0.25
2023-05-10T10:56:12.221Z,0.30
2023-05-10T10:58:40.849Z,0.38
2023-05-10T11:01:17.205Z,0.30
2023-05-10T11:04:06.683Z,0.25
2023-05-10T11:06:36.771Z,0.30
2023-05-10T11:09:10.034Z,0.30
2023-05-10T11:11:52.428Z,0.30
2023-05-10T11:14:23.838Z,0.20
2023-05-10T11:16:51.875Z,0.20
2023-05-10T11:19:20.401Z,0.10
2023-05-10T11:21:52.016Z,0.30
2023-05-10T11:24:22.434Z,0.43
2023-05-10T11:26:54.634Z,0.17
2023-05-10T11:29:27.530Z,0.20
2023-05-10T11:31:59.534Z,0.20
2023-05-10T11:34:34.943Z,0.10
2023-05-10T11:37:03.117Z,0.10
2023-05-10T11:39:32.521Z,0.10
2023-05-10T11:42:00.743Z,0.28
2023-05-10T11:44:32.847Z,0.77
2023-05-10T11:47:04.532Z,0.70
2023-05-10T11:49:35.218Z,0.77
2023-05-10T11:52:09.917Z,0.80
2023-05-10T11:54:38.033Z,1.00
2023-05-10T11:57:06.412Z,0.85
2023-05-10T11:59:34.268Z,0.70
2023-05-10T12:02:02.793Z,0.68
2023-05-10T12:04:31.527Z,0.80
2023-05-10T12:06:59.544Z,0.90
2023-05-10T12:09:42.780Z,0.40
2023-05-10T12:12:11.818Z,0.60
2023-05-10T12:14:40.144Z,0.65
2023-05-10T12:17:08.202Z,0.40
2023-05-10T12:19:40.122Z,0.10
2023-05-10T12:22:08.564Z,0.22
2023-05-10T12:24:39.390Z,0.93
2023-05-10T12:29:55.925Z,0.30
2023-05-10T12:32:27.950Z,0.35
2023-05-10T12:34:56.087Z,0.25
2023-05-10T12:37:28.905Z,0.30
2023-05-10T12:39:56.733Z,0.40
2023-05-10T12:42:26.414Z,0.45
2023-05-10T12:44:58.393Z,0.40
2023-05-10T12:47:26.776Z,0.30
2023-05-10T12:49:58.139Z,0.30
2023-05-10T12:52:27.253Z,0.20
2023-05-10T12:54:55.614Z,0.43
2023-05-10T12:57:23.603Z,0.10
2023-05-10T12:59:51.537Z,0.30
2023-05-10T13:02:19.668Z,0.20
2023-05-10T13:04:49.612Z,0.20
2023-05-10T13:07:19.032Z,0.38
2023-05-10T13:09:47.398Z,0.30
2023-05-10T13:12:15.463Z,0.40
2023-05-10T13:14:43.510Z,0.40
2023-05-10T13:17:11.508Z,0.43
2023-05-10T13:19:39.502Z,0.60
2023-05-10T13:22:07.441Z,0.73
2023-05-10T13:24:35.599Z,0.60
2023-05-10T13:27:03.883Z,0.43
2023-05-10T13:29:32.030Z,0.40
2023-05-10T13:32:00.140Z,0.30
2023-05-10T13:34:28.538Z,0.40
2023-05-10T13:36:57.398Z,0.38
2023-05-10T13:39:25.894Z,0.35
2023-05-10T13:41:54.521Z,0.40
2023-05-10T13:44:23.685Z,0.82
2023-05-10T13:46:51.490Z,0.32
2023-05-10T13:49:19.650Z,0.40
2023-05-10T13:51:47.654Z,0.43
2023-05-10T13:54:15.712Z,0.40
2023-05-10T13:56:45.244Z,0.60
2023-05-10T13:59:13.084Z,0.40
2023-05-10T14:01:41.581Z,0.40
2023-05-10T14:04:11.683Z,0.25
2023-05-10T14:06:39.763Z,0.40
2023-05-10T14:09:07.937Z,0.52
2023-05-10T14:11:36.003Z,0.40
2023-05-10T14:14:04.828Z,0.65
2023-05-10T14:16:33.055Z,0.43
2023-05-10T14:19:00.997Z,0.60
2023-05-10T14:21:30.928Z,0.50
2023-05-10T14:23:59.258Z,0.40
2023-05-10T14:26:30.222Z,0.63
2023-05-10T14:28:58.926Z,0.50
2023-05-10T14:31:27.250Z,0.60
2023-05-10T14:33:55.739Z,0.38
2023-05-10T14:36:23.861Z,0.80
2023-05-10T14:38:52.039Z,0.70
2023-05-10T14:41:20.150Z,0.50
2023-05-10T14:43:48.187Z,0.50
2023-05-10T14:46:17.135Z,1.45
2023-05-10T14:48:45.131Z,0.80
2023-05-10T14:51:13.163Z,0.45
2023-05-10T14:53:41.033Z,0.57
2023-05-10T14:56:09.089Z,0.60
2023-05-10T14:58:37.133Z,0.90
2023-05-10T15:01:08.653Z,0.55
2023-05-10T15:03:37.448Z,0.68
2023-05-10T15:06:06.867Z,0.57
2023-05-10T15:08:35.297Z,0.45
2023-05-10T15:11:04.298Z,0.40
2023-05-10T15:13:33.640Z,0.50
2023-05-10T15:16:01.641Z,0.32
2023-05-10T15:18:30.469Z,0.65
2023-05-10T15:20:59.597Z,0.50
2023-05-10T15:23:30.570Z,0.50
2023-05-10T15:25:58.681Z,0.68
2023-05-10T15:28:27.284Z,0.50
2023-05-10T15:30:55.174Z,0.65
2023-05-10T15:33:23.610Z,0.52
2023-05-10T15:35:51.487Z,0.68
2023-05-10T15:38:19.674Z,0.70
2023-05-10T15:40:47.702Z,0.80
2023-05-10T15:43:16.507Z,0.50
2023-05-10T15:45:44.755Z,0.73
2023-05-10T15:48:12.831Z,0.73
2023-05-10T15:50:41.655Z,0.52
2023-05-10T15:53:09.791Z,0.63
2023-05-10T15:55:38.045Z,0.75
2023-05-10T15:58:06.212Z,0.43
2023-05-10T16:00:34.370Z,0.40
2023-05-10T16:03:02.616Z,0.30
2023-05-10T16:05:34.019Z,0.45
2023-05-10T16:08:02.793Z,0.55
2023-05-10T16:10:33.755Z,0.52
2023-05-10T16:13:03.571Z,0.45
2023-05-10T16:15:31.592Z,0.40
2023-05-10T16:17:59.547Z,0.50
2023-05-10T16:20:28.149Z,0.73
2023-05-10T16:22:57.007Z,0.47
2023-05-10T16:25:25.085Z,0.38
2023-05-10T16:27:53.084Z,0.40
2023-05-10T16:30:23.028Z,0.40
2023-05-10T16:32:52.321Z,0.30
2023-05-10T16:35:20.314Z,0.43
2023-05-10T16:37:48.572Z,0.43
2023-05-10T16:40:16.895Z,0.50
2023-05-10T16:42:48.294Z,0.30
2023-05-10T16:45:17.340Z,0.65
2023-05-10T16:47:45.748Z,0.60
2023-05-10T16:50:15.202Z,0.77
2023-05-10T16:52:43.487Z,0.47
2023-05-10T16:55:11.684Z,0.55
2023-05-10T16:57:39.918Z,0.60
2023-05-10T17:00:08.876Z,0.90
2023-05-10T17:02:37.087Z,0.40
2023-05-10T17:05:08.984Z,0.63
2023-05-10T17:07:37.072Z,0.45
2023-05-10T17:10:05.468Z,0.85
2023-05-10T17:12:37.082Z,0.68
2023-05-10T17:15:07.132Z,0.47
2023-05-10T17:17:35.532Z,0.88
2023-05-10T17:20:12.942Z,0.40
2023-05-10T17:22:41.648Z,0.50
2023-05-10T17:25:09.930Z,0.45
2023-05-10T17:27:38.293Z,0.80
2023-05-10T17:30:07.102Z,0.60
2023-05-10T17:32:35.102Z,0.55
2023-05-10T17:35:05.418Z,0.52
2023-05-10T17:37:34.078Z,0.40
2023-05-10T17:40:03.342Z,0.60
2023-05-10T17:42:31.485Z,0.75
2023-05-10T17:45:00.311Z,0.50
2023-05-10T17:47:28.570Z,0.50
2023-05-10T17:49:56.578Z,0.45
2023-05-10T17:52:24.514Z,0.40
2023-05-10T17:54:52.436Z,0.50
2023-05-10T17:57:21.233Z,0.40
2023-05-10T17:59:49.320Z,0.70
2023-05-10T18:02:20.357Z,0.50
2023-05-10T18:04:49.676Z,0.80
2023-05-10T18:07:17.777Z,0.70
2023-05-10T18:09:45.651Z,0.68
2023-05-10T18:12:14.650Z,0.70
2023-05-10T18:14:42.696Z,0.90
2023-05-10T18:17:11.122Z,0.77
2023-05-10T18:19:39.997Z,1.10
2023-05-10T18:22:11.186Z,1.10
2023-05-10T18:27:10.067Z,0.77
2023-05-10T18:29:38.384Z,1.10
2023-05-10T18:32:06.850Z,0.90
2023-05-10T18:34:37.511Z,1.10
2023-05-10T18:37:08.020Z,0.95
2023-05-10T18:39:38.392Z,1.10
2023-05-10T18:42:06.955Z,1.15
2023-05-10T18:44:35.016Z,0.93
2023-05-10T18:47:03.313Z,1.10
2023-05-10T18:49:31.481Z,1.15
2023-05-10T18:51:59.553Z,0.93
2023-05-10T18:54:27.780Z,1.00
2023-05-10T18:56:57.460Z,0.95
2023-05-10T18:59:28.084Z,1.00
2023-05-10T19:01:57.539Z,1.40
2023-05-10T19:04:25.840Z,1.10
2023-05-10T19:06:53.742Z,1.30
2023-05-10T19:09:22.026Z,1.15
2023-05-10T19:11:51.327Z,1.65
2023-05-10T19:14:19.402Z,1.27
2023-05-10T19:16:51.742Z,1.27
2023-05-10T19:19:22.663Z,1.30
2023-05-10T19:24:20.880Z,1.33
2023-05-10T19:26:49.594Z,1.20
2023-05-10T19:29:17.738Z,1.50
2023-05-10T19:31:46.027Z,1.65
2023-05-10T19:34:17.266Z,1.52
2023-05-10T19:36:45.685Z,1.40
2023-05-10T19:39:14.100Z,1.90
2023-05-10T19:41:42.142Z,1.80
2023-05-10T19:44:10.074Z,1.52
2023-05-10T19:46:38.113Z,1.83
2023-05-10T19:49:06.181Z,2.08
2023-05-10T19:51:34.225Z,1.92
2023-05-10T19:54:02.509Z,2.08
2023-05-10T19:56:30.975Z,2.25
2023-05-10T19:58:59.557Z,2.63
2023-05-10T20:01:27.814Z,2.25
2023-05-10T20:03:57.688Z,2.15
2023-05-10T20:06:25.758Z,2.50
2023-05-10T20:08:53.698Z,2.53
2023-05-10T20:11:22.314Z,2.28
2023-05-10T20:13:50.123Z,2.20
2023-05-10T20:16:18.623Z,2.20
2023-05-10T20:18:46.901Z,2.10
2023-05-10T20:21:15.211Z,2.05
2023-05-10T20:23:44.593Z,2.03
2023-05-10T20:26:12.830Z,1.80
2023-05-10T20:28:42.122Z,2.20
2023-05-10T20:31:10.254Z,2.50
2023-05-10T20:33:38.326Z,2.20
2023-05-10T20:36:08.482Z,2.45
2023-05-10T20:38:37.138Z,2.33
2023-05-10T20:41:05.098Z,2.28
2023-05-10T20:43:33.074Z,2.60
2023-05-10T20:46:05.742Z,2.58
2023-05-10T20:48:37.048Z,2.45
2023-05-10T20:51:06.058Z,2.67
2023-05-10T20:53:39.996Z,2.25
2023-05-10T20:56:07.967Z,3.08
2023-05-10T20:58:36.115Z,2.80
2023-05-10T21:01:04.303Z,2.85
2023-05-10T21:03:34.446Z,2.60
2023-05-10T21:06:04.593Z,2.40
2023-05-10T21:08:34.314Z,2.20
2023-05-10T21:11:06.956Z,2.50
2023-05-10T21:13:38.437Z,2.20
2023-05-10T21:16:06.729Z,2.60
2023-05-10T21:18:35.037Z,2.55
2023-05-10T21:21:02.977Z,2.97
2023-05-10T21:23:36.847Z,2.05
2023-05-10T21:26:12.492Z,2.30
2023-05-10T21:28:44.675Z,2.78
2023-05-10T21:31:16.352Z,1.90
2023-05-10T21:33:44.516Z,2.03
2023-05-10T21:36:15.671Z,2.92
2023-05-10T21:38:44.976Z,2.10
2023-05-10T21:41:13.071Z,3.15
2023-05-10T21:43:41.185Z,2.75
2023-05-10T21:46:09.513Z,2.38
2023-05-10T21:48:38.008Z,2.60
2023-05-10T21:51:06.207Z,2.17
2023-05-10T21:53:34.334Z,2.15
2023-05-10T21:56:04.425Z,2.35
2023-05-10T21:58:35.538Z,2.15
2023-05-10T22:01:14.092Z,2.33
2023-05-10T22:03:44.179Z,2.28
2023-05-10T22:06:14.529Z,2.45
2023-05-10T22:08:51.501Z,2.22
2023-05-10T22:11:19.754Z,2.55
2023-05-10T22:13:52.010Z,2.15
2023-05-10T22:16:20.201Z,2.17
2023-05-10T22:18:54.269Z,2.20
2023-05-10T22:21:22.501Z,2.42
2023-05-10T22:23:51.239Z,2.45
2023-05-10T22:26:19.643Z,2.08
2023-05-10T22:28:49.313Z,1.83
2023-05-10T22:31:17.596Z,1.90
2023-05-10T22:33:48.864Z,1.98
2023-05-10T22:36:19.868Z,2.75
2023-05-10T22:38:47.922Z,2.10
2023-05-10T22:41:18.978Z,1.77
2023-05-10T22:43:47.991Z,2.05
2023-05-10T22:48:46.369Z,1.85
2023-05-10T22:51:14.435Z,1.85
2023-05-10T22:53:45.118Z,1.70
2023-05-10T22:56:15.798Z,1.90
2023-05-10T22:58:44.316Z,1.95
2023-05-10T23:01:34.343Z,1.90
2023-05-10T23:04:07.395Z,2.00
2023-05-10T23:06:41.699Z,1.92
2023-05-10T23:09:15.344Z,1.90
2023-05-10T23:11:43.442Z,1.88
2023-05-10T23:14:12.312Z,2.28
2023-05-10T23:16:44.989Z,1.77
2023-05-10T23:19:20.672Z,3.40
2023-05-10T23:21:54.668Z,1.60
2023-05-10T23:24:22.629Z,2.00
2023-05-10T23:26:53.477Z,1.85
2023-05-10T23:29:22.632Z,2.15
2023-05-10T23:31:51.261Z,2.00
2023-05-10T23:34:19.880Z,1.80
2023-05-10T23:36:48.293Z,2.13
2023-05-10T23:39:16.474Z,1.88
2023-05-10T23:41:54.635Z,2.00
2023-05-10T23:44:22.674Z,2.17
2023-05-10T23:46:50.827Z,2.15
2023-05-10T23:49:19.111Z,2.00
2023-05-10T23:51:49.631Z,1.88
2023-05-10T23:54:17.688Z,3.17
2023-05-10T23:56:51.615Z,2.08
2023-05-10T23:59:22.355Z,1.98
